sensor_id;sensor_type;location;lat;lon;timestamp;P1;durP1;ratioP1;P2;durP2;ratioP2
35026;SDS011;60696;51.426;6.934;2023-02-04T00:00:52;17.67;;;2.25;;
35026;SDS011;60696;51.426;6.934;2023-02-04T00:03:18;12.20;;;2.38;;
35026;SDS011;60696;51.426;6.934;2023-02-04T00:05:43;14.82;;;2.05;;
35026;SDS011;60696;51.426;6.934;2023-02-04T00:08:09;15.20;;;2.65;;
35026;SDS011;60696;51.426;6.934;2023-02-04T00:10:35;15.75;;;2.70;;
35026;SDS011;60696;51.426;6.934;2023-02-04T00:13:01;17.85;;;2.10;;
35026;SDS011;60696;51.426;6.934;2023-02-04T00:15:28;15.63;;;2.30;;
35026;SDS011;60696;51.426;6.934;2023-02-04T00:17:54;17.02;;;3.17;;
35026;SDS011;60696;51.426;6.934;2023-02-04T00:20:19;19.52;;;2.70;;
35026;SDS011;60696;51.426;6.934;2023-02-04T00:22:45;20.15;;;3.15;;
35026;SDS011;60696;51.426;6.934;2023-02-04T00:25:11;15.65;;;2.05;;
35026;SDS011;60696;51.426;6.934;2023-02-04T00:27:37;20.58;;;2.80;;
35026;SDS011;60696;51.426;6.934;2023-02-04T00:30:06;16.70;;;3.03;;
35026;SDS011;60696;51.426;6.934;2023-02-04T00:32:32;20.33;;;2.50;;
35026;SDS011;60696;51.426;6.934;2023-02-04T00:34:58;21.52;;;3.47;;
35026;SDS011;60696;51.426;6.934;2023-02-04T00:37:23;18.17;;;2.75;;
35026;SDS011;60696;51.426;6.934;2023-02-04T00:39:49;22.60;;;2.92;;
35026;SDS011;60696;51.426;6.934;2023-02-04T00:42:16;21.75;;;2.42;;
35026;SDS011;60696;51.426;6.934;2023-02-04T00:44:41;13.38;;;2.28;;
35026;SDS011;60696;51.426;6.934;2023-02-04T00:47:07;13.10;;;2.55;;
35026;SDS011;60696;51.426;6.934;2023-02-04T00:49:35;21.92;;;3.30;;
35026;SDS011;60696;51.426;6.934;2023-02-04T00:52:00;26.98;;;2.80;;
35026;SDS011;60696;51.426;6.934;2023-02-04T00:54:26;16.65;;;2.60;;
35026;SDS011;60696;51.426;6.934;2023-02-04T00:56:52;13.95;;;2.35;;
35026;SDS011;60696;51.426;6.934;2023-02-04T00:59:18;18.30;;;2.90;;
35026;SDS011;60696;51.426;6.934;2023-02-04T01:01:44;14.90;;;2.47;;
35026;SDS011;60696;51.426;6.934;2023-02-04T01:04:09;14.90;;;2.67;;
35026;SDS011;60696;51.426;6.934;2023-02-04T01:06:35;20.42;;;2.95;;
35026;SDS011;60696;51.426;6.934;2023-02-04T01:09:00;13.50;;;2.03;;
35026;SDS011;60696;51.426;6.934;2023-02-04T01:11:27;15.90;;;2.28;;
35026;SDS011;60696;51.426;6.934;2023-02-04T01:13:53;21.92;;;2.90;;
35026;SDS011;60696;51.426;6.934;2023-02-04T01:16:19;27.70;;;3.15;;
35026;SDS011;60696;51.426;6.934;2023-02-04T01:18:44;20.40;;;2.28;;
35026;SDS011;60696;51.426;6.934;2023-02-04T01:21:10;22.20;;;2.60;;
35026;SDS011;60696;51.426;6.934;2023-02-04T01:23:36;18.42;;;2.55;;
35026;SDS011;60696;51.426;6.934;2023-02-04T01:26:02;15.48;;;2.60;;
35026;SDS011;60696;51.426;6.934;2023-02-04T01:28:28;16.80;;;2.63;;
35026;SDS011;60696;51.426;6.934;2023-02-04T01:30:53;21.05;;;3.35;;
35026;SDS011;60696;51.426;6.934;2023-02-04T01:33:19;18.90;;;2.55;;
35026;SDS011;60696;51.426;6.934;2023-02-04T01:35:45;22.42;;;3.15;;
35026;SDS011;60696;51.426;6.934;2023-02-04T01:38:11;16.73;;;2.65;;
35026;SDS011;60696;51.426;6.934;2023-02-04T01:40:36;11.23;;;1.95;;
35026;SDS011;60696;51.426;6.934;2023-02-04T01:43:02;22.02;;;4.03;;
35026;SDS011;60696;51.426;6.934;2023-02-04T01:45:28;26.58;;;2.95;;
35026;SDS011;60696;51.426;6.934;2023-02-04T01:47:57;19.77;;;2.25;;
35026;SDS011;60696;51.426;6.934;2023-02-04T01:50:23;15.15;;;2.50;;
35026;SDS011;60696;51.426;6.934;2023-02-04T01:52:48;23.33;;;3.05;;
35026;SDS011;60696;51.426;6.934;2023-02-04T01:55:15;24.70;;;2.78;;
35026;SDS011;60696;51.426;6.934;2023-02-04T01:57:45;15.77;;;2.45;;
35026;SDS011;60696;51.426;6.934;2023-02-04T02:00:14;17.92;;;2.92;;
35026;SDS011;60696;51.426;6.934;2023-02-04T02:02:42;20.25;;;2.47;;
35026;SDS011;60696;51.426;6.934;2023-02-04T02:05:16;26.85;;;3.05;;
35026;SDS011;60696;51.426;6.934;2023-02-04T02:07:45;22.92;;;2.97;;
35026;SDS011;60696;51.426;6.934;2023-02-04T02:10:12;33.63;;;3.72;;
35026;SDS011;60696;51.426;6.934;2023-02-04T02:12:39;21.77;;;2.65;;
35026;SDS011;60696;51.426;6.934;2023-02-04T02:15:05;14.98;;;2.60;;
35026;SDS011;60696;51.426;6.934;2023-02-04T02:17:32;24.27;;;2.72;;
35026;SDS011;60696;51.426;6.934;2023-02-04T02:19:58;25.58;;;2.88;;
35026;SDS011;60696;51.426;6.934;2023-02-04T02:22:39;21.27;;;2.33;;
35026;SDS011;60696;51.426;6.934;2023-02-04T02:25:22;20.60;;;2.67;;
35026;SDS011;60696;51.426;6.934;2023-02-04T02:27:47;12.43;;;2.08;;
35026;SDS011;60696;51.426;6.934;2023-02-04T02:30:14;28.08;;;3.03;;
35026;SDS011;60696;51.426;6.934;2023-02-04T02:32:41;20.30;;;2.72;;
35026;SDS011;60696;51.426;6.934;2023-02-04T02:35:09;20.58;;;2.78;;
35026;SDS011;60696;51.426;6.934;2023-02-04T02:37:34;16.92;;;2.45;;
35026;SDS011;60696;51.426;6.934;2023-02-04T02:40:00;18.77;;;2.53;;
35026;SDS011;60696;51.426;6.934;2023-02-04T02:42:26;21.80;;;2.30;;
35026;SDS011;60696;51.426;6.934;2023-02-04T02:44:53;21.52;;;2.47;;
35026;SDS011;60696;51.426;6.934;2023-02-04T02:47:19;22.33;;;3.20;;
35026;SDS011;60696;51.426;6.934;2023-02-04T02:49:46;14.98;;;2.42;;
35026;SDS011;60696;51.426;6.934;2023-02-04T02:52:14;14.30;;;2.50;;
35026;SDS011;60696;51.426;6.934;2023-02-04T02:54:41;20.58;;;2.35;;
35026;SDS011;60696;51.426;6.934;2023-02-04T02:57:11;16.48;;;2.47;;
35026;SDS011;60696;51.426;6.934;2023-02-04T02:59:41;17.50;;;2.80;;
35026;SDS011;60696;51.426;6.934;2023-02-04T03:02:08;13.05;;;1.73;;
35026;SDS011;60696;51.426;6.934;2023-02-04T03:04:43;24.23;;;3.50;;
35026;SDS011;60696;51.426;6.934;2023-02-04T03:07:10;17.15;;;2.22;;
35026;SDS011;60696;51.426;6.934;2023-02-04T03:09:37;22.65;;;2.97;;
35026;SDS011;60696;51.426;6.934;2023-02-04T03:12:03;24.70;;;2.55;;
35026;SDS011;60696;51.426;6.934;2023-02-04T03:14:30;17.15;;;2.60;;
35026;SDS011;60696;51.426;6.934;2023-02-04T03:16:56;16.05;;;2.60;;
35026;SDS011;60696;51.426;6.934;2023-02-04T03:19:23;20.35;;;2.53;;
35026;SDS011;60696;51.426;6.934;2023-02-04T03:21:50;17.00;;;2.75;;
35026;SDS011;60696;51.426;6.934;2023-02-04T03:24:17;13.93;;;2.25;;
35026;SDS011;60696;51.426;6.934;2023-02-04T03:26:42;19.35;;;2.05;;
35026;SDS011;60696;51.426;6.934;2023-02-04T03:29:08;15.27;;;2.58;;
35026;SDS011;60696;51.426;6.934;2023-02-04T03:31:35;20.10;;;2.38;;
35026;SDS011;60696;51.426;6.934;2023-02-04T03:34:02;18.98;;;2.08;;
35026;SDS011;60696;51.426;6.934;2023-02-04T03:36:28;13.88;;;2.35;;
35026;SDS011;60696;51.426;6.934;2023-02-04T03:38:54;13.70;;;2.08;;
35026;SDS011;60696;51.426;6.934;2023-02-04T03:41:20;15.93;;;2.97;;
35026;SDS011;60696;51.426;6.934;2023-02-04T03:43:45;27.83;;;3.05;;
35026;SDS011;60696;51.426;6.934;2023-02-04T03:46:11;20.90;;;2.88;;
35026;SDS011;60696;51.426;6.934;2023-02-04T03:48:36;29.33;;;2.80;;
35026;SDS011;60696;51.426;6.934;2023-02-04T03:51:02;17.55;;;2.47;;
35026;SDS011;60696;51.426;6.934;2023-02-04T03:53:28;17.30;;;2.10;;
35026;SDS011;60696;51.426;6.934;2023-02-04T03:55:54;25.45;;;3.03;;
35026;SDS011;60696;51.426;6.934;2023-02-04T03:58:20;15.10;;;2.50;;
35026;SDS011;60696;51.426;6.934;2023-02-04T04:00:46;22.88;;;2.60;;
35026;SDS011;60696;51.426;6.934;2023-02-04T04:03:12;18.80;;;2.63;;
35026;SDS011;60696;51.426;6.934;2023-02-04T04:05:37;13.93;;;2.15;;
35026;SDS011;60696;51.426;6.934;2023-02-04T04:08:03;28.02;;;2.92;;
35026;SDS011;60696;51.426;6.934;2023-02-04T04:10:29;18.30;;;2.38;;
35026;SDS011;60696;51.426;6.934;2023-02-04T04:12:54;22.27;;;2.60;;
35026;SDS011;60696;51.426;6.934;2023-02-04T04:15:20;25.13;;;3.03;;
35026;SDS011;60696;51.426;6.934;2023-02-04T04:17:45;20.10;;;2.75;;
35026;SDS011;60696;51.426;6.934;2023-02-04T04:20:11;16.08;;;2.33;;
35026;SDS011;60696;51.426;6.934;2023-02-04T04:22:37;17.80;;;2.47;;
35026;SDS011;60696;51.426;6.934;2023-02-04T04:25:03;18.65;;;2.67;;
35026;SDS011;60696;51.426;6.934;2023-02-04T04:27:29;14.82;;;2.35;;
35026;SDS011;60696;51.426;6.934;2023-02-04T04:29:55;27.73;;;2.67;;
35026;SDS011;60696;51.426;6.934;2023-02-04T04:32:22;23.88;;;2.90;;
35026;SDS011;60696;51.426;6.934;2023-02-04T04:34:47;16.08;;;2.17;;
35026;SDS011;60696;51.426;6.934;2023-02-04T04:37:13;30.38;;;3.13;;
35026;SDS011;60696;51.426;6.934;2023-02-04T04:39:39;16.25;;;2.40;;
35026;SDS011;60696;51.426;6.934;2023-02-04T04:42:04;16.75;;;2.60;;
35026;SDS011;60696;51.426;6.934;2023-02-04T04:44:30;21.33;;;2.63;;
35026;SDS011;60696;51.426;6.934;2023-02-04T04:46:56;15.50;;;2.47;;
35026;SDS011;60696;51.426;6.934;2023-02-04T04:49:22;14.05;;;2.78;;
35026;SDS011;60696;51.426;6.934;2023-02-04T04:51:48;24.70;;;3.53;;
35026;SDS011;60696;51.426;6.934;2023-02-04T04:54:13;19.90;;;2.58;;
35026;SDS011;60696;51.426;6.934;2023-02-04T04:56:39;26.40;;;3.20;;
35026;SDS011;60696;51.426;6.934;2023-02-04T04:59:04;28.52;;;2.72;;
35026;SDS011;60696;51.426;6.934;2023-02-04T05:01:30;16.85;;;1.80;;
35026;SDS011;60696;51.426;6.934;2023-02-04T05:03:56;17.15;;;2.35;;
35026;SDS011;60696;51.426;6.934;2023-02-04T05:06:21;19.15;;;2.60;;
35026;SDS011;60696;51.426;6.934;2023-02-04T05:08:52;24.85;;;2.53;;
35026;SDS011;60696;51.426;6.934;2023-02-04T05:11:18;17.48;;;2.05;;
35026;SDS011;60696;51.426;6.934;2023-02-04T05:13:44;18.77;;;2.38;;
35026;SDS011;60696;51.426;6.934;2023-02-04T05:16:10;19.55;;;2.70;;
35026;SDS011;60696;51.426;6.934;2023-02-04T05:18:36;19.40;;;2.60;;
35026;SDS011;60696;51.426;6.934;2023-02-04T05:21:02;22.63;;;2.45;;
35026;SDS011;60696;51.426;6.934;2023-02-04T05:23:28;14.32;;;2.40;;
35026;SDS011;60696;51.426;6.934;2023-02-04T05:25:54;25.80;;;3.67;;
35026;SDS011;60696;51.426;6.934;2023-02-04T05:28:19;20.10;;;3.03;;
35026;SDS011;60696;51.426;6.934;2023-02-04T05:30:45;16.63;;;2.28;;
35026;SDS011;60696;51.426;6.934;2023-02-04T05:33:11;21.42;;;2.53;;
35026;SDS011;60696;51.426;6.934;2023-02-04T05:35:36;18.83;;;2.72;;
35026;SDS011;60696;51.426;6.934;2023-02-04T05:38:02;15.07;;;2.38;;
35026;SDS011;60696;51.426;6.934;2023-02-04T05:40:27;25.55;;;3.05;;
35026;SDS011;60696;51.426;6.934;2023-02-04T05:42:53;19.25;;;2.38;;
35026;SDS011;60696;51.426;6.934;2023-02-04T05:45:18;24.33;;;2.30;;
35026;SDS011;60696;51.426;6.934;2023-02-04T05:47:44;11.02;;;2.00;;
35026;SDS011;60696;51.426;6.934;2023-02-04T05:50:10;14.07;;;2.55;;
35026;SDS011;60696;51.426;6.934;2023-02-04T05:52:36;12.48;;;2.22;;
35026;SDS011;60696;51.426;6.934;2023-02-04T05:55:01;22.58;;;2.90;;
35026;SDS011;60696;51.426;6.934;2023-02-04T05:57:27;25.23;;;2.25;;
35026;SDS011;60696;51.426;6.934;2023-02-04T05:59:53;15.70;;;2.50;;
35026;SDS011;60696;51.426;6.934;2023-02-04T06:02:18;12.88;;;2.03;;
35026;SDS011;60696;51.426;6.934;2023-02-04T06:04:44;13.60;;;1.95;;
35026;SDS011;60696;51.426;6.934;2023-02-04T06:07:09;19.90;;;2.38;;
35026;SDS011;60696;51.426;6.934;2023-02-04T06:09:35;24.27;;;2.90;;
35026;SDS011;60696;51.426;6.934;2023-02-04T06:12:01;18.33;;;2.90;;
35026;SDS011;60696;51.426;6.934;2023-02-04T06:14:26;19.77;;;2.80;;
35026;SDS011;60696;51.426;6.934;2023-02-04T06:16:52;23.60;;;3.28;;
35026;SDS011;60696;51.426;6.934;2023-02-04T06:19:17;16.35;;;2.38;;
35026;SDS011;60696;51.426;6.934;2023-02-04T06:21:43;18.98;;;2.63;;
35026;SDS011;60696;51.426;6.934;2023-02-04T06:24:09;16.27;;;2.33;;
35026;SDS011;60696;51.426;6.934;2023-02-04T06:26:34;22.50;;;3.03;;
35026;SDS011;60696;51.426;6.934;2023-02-04T06:29:00;20.58;;;3.13;;
35026;SDS011;60696;51.426;6.934;2023-02-04T06:31:26;11.65;;;1.95;;
35026;SDS011;60696;51.426;6.934;2023-02-04T06:33:51;21.80;;;2.78;;
35026;SDS011;60696;51.426;6.934;2023-02-04T06:36:17;19.05;;;2.47;;
35026;SDS011;60696;51.426;6.934;2023-02-04T06:38:42;15.00;;;2.38;;
35026;SDS011;60696;51.426;6.934;2023-02-04T06:41:08;18.60;;;2.20;;
35026;SDS011;60696;51.426;6.934;2023-02-04T06:43:34;22.65;;;2.72;;
35026;SDS011;60696;51.426;6.934;2023-02-04T06:45:59;26.17;;;3.13;;
35026;SDS011;60696;51.426;6.934;2023-02-04T06:48:25;12.55;;;2.42;;
35026;SDS011;60696;51.426;6.934;2023-02-04T06:50:50;17.48;;;2.88;;
35026;SDS011;60696;51.426;6.934;2023-02-04T06:53:16;17.75;;;3.13;;
35026;SDS011;60696;51.426;6.934;2023-02-04T06:55:41;18.30;;;2.38;;
35026;SDS011;60696;51.426;6.934;2023-02-04T06:58:07;26.65;;;2.42;;
35026;SDS011;60696;51.426;6.934;2023-02-04T07:00:33;21.13;;;2.85;;
35026;SDS011;60696;51.426;6.934;2023-02-04T07:02:59;14.88;;;2.65;;
35026;SDS011;60696;51.426;6.934;2023-02-04T07:05:24;28.40;;;3.47;;
35026;SDS011;60696;51.426;6.934;2023-02-04T07:07:50;23.30;;;2.88;;
35026;SDS011;60696;51.426;6.934;2023-02-04T07:10:16;24.40;;;3.72;;
35026;SDS011;60696;51.426;6.934;2023-02-04T07:12:42;21.65;;;2.95;;
35026;SDS011;60696;51.426;6.934;2023-02-04T07:15:08;24.27;;;3.80;;
35026;SDS011;60696;51.426;6.934;2023-02-04T07:17:34;19.80;;;3.03;;
35026;SDS011;60696;51.426;6.934;2023-02-04T07:19:59;15.93;;;2.83;;
35026;SDS011;60696;51.426;6.934;2023-02-04T07:22:25;25.63;;;4.03;;
35026;SDS011;60696;51.426;6.934;2023-02-04T07:24:51;28.33;;;3.67;;
35026;SDS011;60696;51.426;6.934;2023-02-04T07:27:17;22.70;;;3.10;;
35026;SDS011;60696;51.426;6.934;2023-02-04T07:29:42;18.38;;;2.97;;
35026;SDS011;60696;51.426;6.934;2023-02-04T07:32:08;34.67;;;3.65;;
35026;SDS011;60696;51.426;6.934;2023-02-04T07:34:33;15.35;;;2.28;;
35026;SDS011;60696;51.426;6.934;2023-02-04T07:36:59;19.77;;;2.88;;
35026;SDS011;60696;51.426;6.934;2023-02-04T07:39:25;20.90;;;2.67;;
35026;SDS011;60696;51.426;6.934;2023-02-04T07:41:50;24.80;;;2.88;;
35026;SDS011;60696;51.426;6.934;2023-02-04T07:44:16;13.48;;;2.25;;
35026;SDS011;60696;51.426;6.934;2023-02-04T07:46:41;19.95;;;2.75;;
35026;SDS011;60696;51.426;6.934;2023-02-04T07:49:07;26.45;;;3.60;;
35026;SDS011;60696;51.426;6.934;2023-02-04T07:51:32;20.52;;;2.85;;
35026;SDS011;60696;51.426;6.934;2023-02-04T07:53:59;18.83;;;2.92;;
35026;SDS011;60696;51.426;6.934;2023-02-04T07:56:25;18.75;;;2.72;;
35026;SDS011;60696;51.426;6.934;2023-02-04T07:58:50;14.57;;;2.45;;
35026;SDS011;60696;51.426;6.934;2023-02-04T08:01:16;25.17;;;3.50;;
35026;SDS011;60696;51.426;6.934;2023-02-04T08:03:41;24.23;;;4.10;;
35026;SDS011;60696;51.426;6.934;2023-02-04T08:06:07;17.40;;;2.80;;
35026;SDS011;60696;51.426;6.934;2023-02-04T08:08:33;20.30;;;2.35;;
35026;SDS011;60696;51.426;6.934;2023-02-04T08:10:59;14.82;;;2.60;;
35026;SDS011;60696;51.426;6.934;2023-02-04T08:13:24;20.30;;;2.72;;
35026;SDS011;60696;51.426;6.934;2023-02-04T08:15:50;20.00;;;2.75;;
35026;SDS011;60696;51.426;6.934;2023-02-04T08:18:16;10.25;;;2.00;;
35026;SDS011;60696;51.426;6.934;2023-02-04T08:20:42;22.48;;;2.67;;
35026;SDS011;60696;51.426;6.934;2023-02-04T08:23:07;18.60;;;2.47;;
35026;SDS011;60696;51.426;6.934;2023-02-04T08:25:33;11.50;;;2.58;;
35026;SDS011;60696;51.426;6.934;2023-02-04T08:27:59;15.82;;;2.55;;
35026;SDS011;60696;51.426;6.934;2023-02-04T08:30:24;18.85;;;3.03;;
35026;SDS011;60696;51.426;6.934;2023-02-04T08:32:50;26.92;;;2.80;;
35026;SDS011;60696;51.426;6.934;2023-02-04T08:35:16;22.23;;;3.72;;
35026;SDS011;60696;51.426;6.934;2023-02-04T08:37:41;23.15;;;3.13;;
35026;SDS011;60696;51.426;6.934;2023-02-04T08:40:07;23.02;;;3.20;;
35026;SDS011;60696;51.426;6.934;2023-02-04T08:42:33;23.15;;;3.28;;
35026;SDS011;60696;51.426;6.934;2023-02-04T08:44:59;22.67;;;3.45;;
35026;SDS011;60696;51.426;6.934;2023-02-04T08:47:25;20.52;;;2.63;;
35026;SDS011;60696;51.426;6.934;2023-02-04T08:49:50;13.98;;;2.50;;
35026;SDS011;60696;51.426;6.934;2023-02-04T08:52:16;19.10;;;3.45;;
35026;SDS011;60696;51.426;6.934;2023-02-04T08:54:42;21.38;;;2.75;;
35026;SDS011;60696;51.426;6.934;2023-02-04T08:57:08;25.80;;;3.25;;
35026;SDS011;60696;51.426;6.934;2023-02-04T08:59:34;20.75;;;4.32;;
35026;SDS011;60696;51.426;6.934;2023-02-04T09:02:00;13.65;;;3.35;;
35026;SDS011;60696;51.426;6.934;2023-02-04T09:04:26;26.58;;;3.85;;
35026;SDS011;60696;51.426;6.934;2023-02-04T09:06:52;22.30;;;3.13;;
35026;SDS011;60696;51.426;6.934;2023-02-04T09:09:19;28.83;;;3.72;;
35026;SDS011;60696;51.426;6.934;2023-02-04T09:11:44;21.45;;;3.72;;
35026;SDS011;60696;51.426;6.934;2023-02-04T09:14:11;19.95;;;3.25;;
35026;SDS011;60696;51.426;6.934;2023-02-04T09:16:36;30.20;;;3.85;;
35026;SDS011;60696;51.426;6.934;2023-02-04T09:19:02;30.15;;;3.92;;
35026;SDS011;60696;51.426;6.934;2023-02-04T09:21:27;28.73;;;4.13;;
35026;SDS011;60696;51.426;6.934;2023-02-04T09:23:53;25.13;;;3.67;;
35026;SDS011;60696;51.426;6.934;2023-02-04T09:26:19;24.58;;;4.65;;
35026;SDS011;60696;51.426;6.934;2023-02-04T09:28:45;19.25;;;3.65;;
35026;SDS011;60696;51.426;6.934;2023-02-04T09:31:12;26.63;;;4.78;;
35026;SDS011;60696;51.426;6.934;2023-02-04T09:33:38;27.17;;;3.80;;
35026;SDS011;60696;51.426;6.934;2023-02-04T09:36:04;30.63;;;4.25;;
35026;SDS011;60696;51.426;6.934;2023-02-04T09:38:30;25.42;;;3.53;;
35026;SDS011;60696;51.426;6.934;2023-02-04T09:40:57;27.23;;;3.67;;
35026;SDS011;60696;51.426;6.934;2023-02-04T09:43:30;28.02;;;4.57;;
35026;SDS011;60696;51.426;6.934;2023-02-04T09:45:58;27.15;;;4.38;;
35026;SDS011;60696;51.426;6.934;2023-02-04T09:48:24;20.88;;;4.18;;
35026;SDS011;60696;51.426;6.934;2023-02-04T09:50:50;27.83;;;4.72;;
35026;SDS011;60696;51.426;6.934;2023-02-04T09:53:21;16.52;;;3.97;;
35026;SDS011;60696;51.426;6.934;2023-02-04T09:55:49;21.80;;;4.55;;
35026;SDS011;60696;51.426;6.934;2023-02-04T09:58:20;23.67;;;3.75;;
35026;SDS011;60696;51.426;6.934;2023-02-04T10:00:48;30.48;;;4.53;;
35026;SDS011;60696;51.426;6.934;2023-02-04T10:03:29;27.45;;;4.60;;
35026;SDS011;60696;51.426;6.934;2023-02-04T10:05:55;26.15;;;4.88;;
35026;SDS011;60696;51.426;6.934;2023-02-04T10:08:27;26.05;;;4.78;;
35026;SDS011;60696;51.426;6.934;2023-02-04T10:10:54;38.72;;;5.30;;
35026;SDS011;60696;51.426;6.934;2023-02-04T10:13:22;24.80;;;6.97;;
35026;SDS011;60696;51.426;6.934;2023-02-04T10:15:54;32.22;;;6.38;;
35026;SDS011;60696;51.426;6.934;2023-02-04T10:18:30;27.33;;;7.15;;
35026;SDS011;60696;51.426;6.934;2023-02-04T10:21:31;40.00;;;8.80;;
35026;SDS011;60696;51.426;6.934;2023-02-04T10:23:53;35.10;;;9.07;;
35026;SDS011;60696;51.426;6.934;2023-02-04T10:26:21;29.20;;;8.25;;
35026;SDS011;60696;51.426;6.934;2023-02-04T10:28:47;26.23;;;8.48;;
35026;SDS011;60696;51.426;6.934;2023-02-04T10:31:33;25.65;;;7.40;;
35026;SDS011;60696;51.426;6.934;2023-02-04T10:39:01;29.67;;;8.55;;
35026;SDS011;60696;51.426;6.934;2023-02-04T10:41:28;31.70;;;8.18;;
35026;SDS011;60696;51.426;6.934;2023-02-04T10:44:01;33.65;;;8.57;;
35026;SDS011;60696;51.426;6.934;2023-02-04T10:46:29;29.50;;;9.10;;
35026;SDS011;60696;51.426;6.934;2023-02-04T10:48:56;29.10;;;10.13;;
35026;SDS011;60696;51.426;6.934;2023-02-04T10:51:21;26.63;;;8.88;;
35026;SDS011;60696;51.426;6.934;2023-02-04T10:53:47;31.50;;;9.43;;
35026;SDS011;60696;51.426;6.934;2023-02-04T10:56:31;41.47;;;9.23;;
35026;SDS011;60696;51.426;6.934;2023-02-04T10:58:57;39.45;;;8.15;;
35026;SDS011;60696;51.426;6.934;2023-02-04T11:01:23;24.75;;;7.80;;
35026;SDS011;60696;51.426;6.934;2023-02-04T11:03:52;23.50;;;7.40;;
35026;SDS011;60696;51.426;6.934;2023-02-04T11:06:19;24.83;;;8.63;;
35026;SDS011;60696;51.426;6.934;2023-02-04T11:08:46;22.90;;;7.28;;
35026;SDS011;60696;51.426;6.934;2023-02-04T11:11:15;27.95;;;7.50;;
35026;SDS011;60696;51.426;6.934;2023-02-04T11:21:24;28.90;;;5.82;;
35026;SDS011;60696;51.426;6.934;2023-02-04T11:24:03;17.95;;;5.68;;
35026;SDS011;60696;51.426;6.934;2023-02-04T11:26:48;22.77;;;7.88;;
35026;SDS011;60696;51.426;6.934;2023-02-04T11:29:24;50.45;;;12.48;;
35026;SDS011;60696;51.426;6.934;2023-02-04T11:32:54;38.65;;;12.23;;
35026;SDS011;60696;51.426;6.934;2023-02-04T11:34:53;40.80;;;13.27;;
35026;SDS011;60696;51.426;6.934;2023-02-04T11:40:00;33.88;;;12.05;;
35026;SDS011;60696;51.426;6.934;2023-02-04T11:42:39;35.08;;;14.52;;
35026;SDS011;60696;51.426;6.934;2023-02-04T11:45:13;35.03;;;13.02;;
35026;SDS011;60696;51.426;6.934;2023-02-04T11:47:41;34.58;;;14.27;;
35026;SDS011;60696;51.426;6.934;2023-02-04T11:52:53;35.13;;;13.15;;
35026;SDS011;60696;51.426;6.934;2023-02-04T11:55:19;51.10;;;17.73;;
35026;SDS011;60696;51.426;6.934;2023-02-04T11:57:44;39.35;;;15.38;;
35026;SDS011;60696;51.426;6.934;2023-02-04T12:00:16;53.25;;;16.77;;
35026;SDS011;60696;51.426;6.934;2023-02-04T12:02:45;54.53;;;19.88;;
35026;SDS011;60696;51.426;6.934;2023-02-04T12:05:14;54.35;;;18.45;;
35026;SDS011;60696;51.426;6.934;2023-02-04T12:07:41;49.42;;;17.70;;
35026;SDS011;60696;51.426;6.934;2023-02-04T12:10:12;46.88;;;18.60;;
35026;SDS011;60696;51.426;6.934;2023-02-04T12:12:50;49.28;;;18.88;;
35026;SDS011;60696;51.426;6.934;2023-02-04T12:15:23;48.15;;;18.10;;
35026;SDS011;60696;51.426;6.934;2023-02-04T12:18:03;53.28;;;19.52;;
35026;SDS011;60696;51.426;6.934;2023-02-04T12:20:31;52.33;;;18.65;;
35026;SDS011;60696;51.426;6.934;2023-02-04T12:22:57;48.17;;;16.95;;
35026;SDS011;60696;51.426;6.934;2023-02-04T12:25:23;62.50;;;18.77;;
35026;SDS011;60696;51.426;6.934;2023-02-04T12:27:50;47.65;;;15.13;;
35026;SDS011;60696;51.426;6.934;2023-02-04T12:30:18;50.72;;;14.75;;
35026;SDS011;60696;51.426;6.934;2023-02-04T12:32:44;46.47;;;16.45;;
35026;SDS011;60696;51.426;6.934;2023-02-04T12:35:10;43.17;;;16.42;;
35026;SDS011;60696;51.426;6.934;2023-02-04T12:37:36;45.25;;;15.82;;
35026;SDS011;60696;51.426;6.934;2023-02-04T12:40:01;42.65;;;15.25;;
35026;SDS011;60696;51.426;6.934;2023-02-04T12:42:27;42.40;;;14.35;;
35026;SDS011;60696;51.426;6.934;2023-02-04T12:44:53;35.50;;;13.80;;
35026;SDS011;60696;51.426;6.934;2023-02-04T12:47:18;38.53;;;12.45;;
35026;SDS011;60696;51.426;6.934;2023-02-04T12:49:44;37.75;;;12.38;;
35026;SDS011;60696;51.426;6.934;2023-02-04T12:52:10;37.50;;;12.30;;
35026;SDS011;60696;51.426;6.934;2023-02-04T12:54:36;29.85;;;11.95;;
35026;SDS011;60696;51.426;6.934;2023-02-04T12:57:02;32.70;;;11.93;;
35026;SDS011;60696;51.426;6.934;2023-02-04T12:59:27;42.50;;;10.98;;
35026;SDS011;60696;51.426;6.934;2023-02-04T13:01:55;25.52;;;9.82;;
35026;SDS011;60696;51.426;6.934;2023-02-04T13:04:21;32.70;;;10.68;;
35026;SDS011;60696;51.426;6.934;2023-02-04T13:06:47;34.97;;;12.30;;
35026;SDS011;60696;51.426;6.934;2023-02-04T13:09:12;38.08;;;12.82;;
35026;SDS011;60696;51.426;6.934;2023-02-04T13:11:38;44.08;;;12.57;;
35026;SDS011;60696;51.426;6.934;2023-02-04T13:14:03;36.65;;;12.25;;
35026;SDS011;60696;51.426;6.934;2023-02-04T13:16:29;32.33;;;11.23;;
35026;SDS011;60696;51.426;6.934;2023-02-04T13:18:55;31.17;;;10.88;;
35026;SDS011;60696;51.426;6.934;2023-02-04T13:21:21;34.67;;;10.85;;
35026;SDS011;60696;51.426;6.934;2023-02-04T13:23:46;30.92;;;10.65;;
35026;SDS011;60696;51.426;6.934;2023-02-04T13:26:12;31.02;;;10.00;;
35026;SDS011;60696;51.426;6.934;2023-02-04T13:28:37;34.65;;;10.45;;
35026;SDS011;60696;51.426;6.934;2023-02-04T13:31:03;31.08;;;9.57;;
35026;SDS011;60696;51.426;6.934;2023-02-04T13:33:29;29.08;;;10.00;;
35026;SDS011;60696;51.426;6.934;2023-02-04T13:35:54;30.58;;;10.13;;
35026;SDS011;60696;51.426;6.934;2023-02-04T13:38:21;33.33;;;10.40;;
35026;SDS011;60696;51.426;6.934;2023-02-04T13:40:47;27.70;;;9.95;;
35026;SDS011;60696;51.426;6.934;2023-02-04T13:43:12;38.00;;;9.82;;
35026;SDS011;60696;51.426;6.934;2023-02-04T13:45:38;33.22;;;10.68;;
35026;SDS011;60696;51.426;6.934;2023-02-04T13:48:04;46.97;;;14.27;;
35026;SDS011;60696;51.426;6.934;2023-02-04T13:50:30;42.65;;;15.05;;
35026;SDS011;60696;51.426;6.934;2023-02-04T13:52:56;36.63;;;14.40;;
35026;SDS011;60696;51.426;6.934;2023-02-04T13:55:21;39.00;;;14.95;;
35026;SDS011;60696;51.426;6.934;2023-02-04T13:57:48;42.58;;;13.95;;
35026;SDS011;60696;51.426;6.934;2023-02-04T14:00:14;34.28;;;12.05;;
35026;SDS011;60696;51.426;6.934;2023-02-04T14:02:40;43.22;;;12.50;;
35026;SDS011;60696;51.426;6.934;2023-02-04T14:05:06;21.15;;;7.85;;
35026;SDS011;60696;51.426;6.934;2023-02-04T14:07:32;21.20;;;6.20;;
35026;SDS011;60696;51.426;6.934;2023-02-04T14:09:58;18.17;;;6.35;;
35026;SDS011;60696;51.426;6.934;2023-02-04T14:12:24;26.02;;;5.60;;
35026;SDS011;60696;51.426;6.934;2023-02-04T14:14:49;15.77;;;3.92;;
35026;SDS011;60696;51.426;6.934;2023-02-04T14:17:15;19.13;;;4.50;;
35026;SDS011;60696;51.426;6.934;2023-02-04T14:19:40;21.33;;;5.32;;
35026;SDS011;60696;51.426;6.934;2023-02-04T14:22:06;14.40;;;4.70;;
35026;SDS011;60696;51.426;6.934;2023-02-04T14:24:32;14.25;;;4.50;;
35026;SDS011;60696;51.426;6.934;2023-02-04T14:26:58;16.35;;;4.95;;
35026;SDS011;60696;51.426;6.934;2023-02-04T14:29:23;24.13;;;4.95;;
35026;SDS011;60696;51.426;6.934;2023-02-04T14:31:49;17.17;;;5.30;;
35026;SDS011;60696;51.426;6.934;2023-02-04T14:34:15;15.73;;;4.38;;
35026;SDS011;60696;51.426;6.934;2023-02-04T14:36:40;21.48;;;4.93;;
35026;SDS011;60696;51.426;6.934;2023-02-04T14:39:06;16.35;;;4.38;;
35026;SDS011;60696;51.426;6.934;2023-02-04T14:41:31;17.73;;;4.85;;
35026;SDS011;60696;51.426;6.934;2023-02-04T14:43:57;21.00;;;5.13;;
35026;SDS011;60696;51.426;6.934;2023-02-04T14:46:23;15.23;;;4.95;;
35026;SDS011;60696;51.426;6.934;2023-02-04T14:48:48;21.45;;;5.13;;